Time;durP1;ratioP1;P1;durP2;ratioP2;P2;SDS_P1;SDS_P2;PMS_P1;PMS_P2;Temp;Humidity;BMP_temperature;BMP_pressure;BME280_temperature;BME280_humidity;BME280_pressure;Samples;Min_cycle;Max_cycle;Signal;HPM_P1;HPM_P2
2022/11/25 00:05:30;;;;;;;1.90;0.60;;;;;;;;;;20997804;28;20409;-64
2022/11/25 00:15:33;;;;;;;2.55;0.57;;;;;;;;;;20996525;28;20048;-59
2022/11/25 00:25:35;;;;;;;1.15;0.60;;;;;;;;;;20996017;28;20576;-60
2022/11/25 00:35:37;;;;;;;1.20;0.75;;;;;;;;;;21005205;28;20041;-62
2022/11/25 00:45:39;;;;;;;1.27;0.63;;;;;;;;;;21012775;28;20391;-64
2022/11/25 01:06:21;;;;;;;1.50;0.65;;;;;;;;;;20754902;28;20144;-58
2022/11/25 01:16:23;;;;;;;1.55;0.40;;;;;;;;;;20737607;28;20054;-58
2022/11/25 01:26:25;;;;;;;0.90;0.40;;;;;;;;;;20752319;28;20057;-58
2022/11/25 01:36:27;;;;;;;0.75;0.43;;;;;;;;;;20961082;28;20131;-58
2022/11/25 01:46:37;;;;;;;0.90;0.70;;;;;;;;;;21006838;28;20139;-64
2022/11/25 01:56:43;;;;;;;1.70;0.45;;;;;;;;;;21006804;28;20044;-61
2022/11/25 02:06:48;;;;;;;0.90;0.52;;;;;;;;;;21006013;28;20086;-64
2022/11/25 02:16:50;;;;;;;2.63;0.65;;;;;;;;;;21004380;28;20040;-57
2022/11/25 02:26:52;;;;;;;2.13;0.40;;;;;;;;;;21003702;28;20113;-60
2022/11/25 02:36:54;;;;;;;3.50;0.47;;;;;;;;;;21002923;28;20055;-59
2022/11/25 02:47:07;;;;;;;1.25;0.43;;;;;;;;;;21002358;28;20059;-65
2022/11/25 02:57:17;;;;;;;3.78;0.70;;;;;;;;;;21000604;28;20060;-61
2022/11/25 03:07:26;;;;;;;1.08;0.50;;;;;;;;;;20984686;28;20075;-63
2022/11/25 03:17:33;;;;;;;0.95;0.63;;;;;;;;;;21000722;28;20428;-65
2022/11/25 03:27:54;;;;;;;0.65;0.40;;;;;;;;;;20999060;28;20400;-62
2022/11/25 03:38:16;;;;;;;0.85;0.40;;;;;;;;;;20999092;28;20451;-63
2022/11/25 03:48:26;;;;;;;0.57;0.38;;;;;;;;;;20982213;28;20059;-62
2022/11/25 03:58:38;;;;;;;1.10;0.70;;;;;;;;;;20997516;28;20097;-65
2022/11/25 04:08:50;;;;;;;1.85;0.90;;;;;;;;;;20995750;28;20055;-61
2022/11/25 04:19:01;;;;;;;1.95;1.00;;;;;;;;;;20996329;28;20147;-64
2022/11/25 04:29:14;;;;;;;1.63;0.80;;;;;;;;;;20995392;28;20101;-61
2022/11/25 04:39:17;;;;;;;2.35;0.70;;;;;;;;;;20995280;28;20079;-64
2022/11/25 04:49:34;;;;;;;2.53;1.20;;;;;;;;;;20996197;28;20045;-66
2022/11/25 04:59:40;;;;;;;1.98;1.10;;;;;;;;;;20994640;28;20048;-65
2022/11/25 05:09:43;;;;;;;3.53;1.50;;;;;;;;;;20994460;28;20044;-62
2022/11/25 05:19:49;;;;;;;1.85;0.90;;;;;;;;;;20999908;28;20439;-58
2022/11/25 05:29:51;;;;;;;3.20;1.25;;;;;;;;;;21008436;28;20056;-60
2022/11/25 05:39:54;;;;;;;1.35;1.00;;;;;;;;;;21007358;28;20525;-59
2022/11/25 05:49:56;;;;;;;2.22;1.17;;;;;;;;;;21007882;28;20072;-64
2022/11/25 05:59:58;;;;;;;1.55;1.00;;;;;;;;;;21006445;28;20086;-59
2022/11/25 06:10:00;;;;;;;0.98;0.60;;;;;;;;;;21005908;28;20406;-58
2022/11/25 06:20:03;;;;;;;1.98;0.70;;;;;;;;;;21005734;28;20523;-60
2022/11/25 06:30:06;;;;;;;1.67;0.77;;;;;;;;;;21001844;28;20086;-60
2022/11/25 06:40:08;;;;;;;1.73;0.73;;;;;;;;;;21002831;28;20080;-60
2022/11/25 06:50:10;;;;;;;1.15;0.65;;;;;;;;;;21002324;28;20049;-60
2022/11/25 07:00:12;;;;;;;3.38;0.50;;;;;;;;;;21001349;28;20103;-62
2022/11/25 07:10:14;;;;;;;2.00;1.10;;;;;;;;;;21000474;28;20502;-60
2022/11/25 07:20:16;;;;;;;1.88;1.10;;;;;;;;;;20999107;28;20054;-64
2022/11/25 07:30:19;;;;;;;4.47;0.82;;;;;;;;;;20998946;28;20052;-59
2022/11/25 07:40:21;;;;;;;2.00;0.90;;;;;;;;;;20997800;28;20086;-59
2022/11/25 07:50:23;;;;;;;2.88;0.95;;;;;;;;;;20998007;28;20048;-64
2022/11/25 08:00:25;;;;;;;3.38;0.68;;;;;;;;;;20996261;28;20476;-69
2022/11/25 08:10:27;;;;;;;5.95;1.08;;;;;;;;;;20997545;28;20080;-60
2022/11/25 08:20:30;;;;;;;4.28;0.80;;;;;;;;;;20997145;28;20044;-66
2022/11/25 08:30:33;;;;;;;3.13;1.13;;;;;;;;;;20995827;28;20484;-59
2022/11/25 08:40:36;;;;;;;3.28;0.70;;;;;;;;;;20995686;28;20044;-58
2022/11/25 08:50:38;;;;;;;3.15;1.10;;;;;;;;;;20995974;28;20442;-58
2022/11/25 09:00:40;;;;;;;5.45;1.13;;;;;;;;;;21010224;28;20090;-66
2022/11/25 09:10:43;;;;;;;5.85;1.00;;;;;;;;;;21010825;28;20495;-59
2022/11/25 09:20:46;;;;;;;4.88;0.77;;;;;;;;;;21009848;28;20450;-62
2022/11/25 09:30:49;;;;;;;5.38;2.53;;;;;;;;;;21008241;28;20055;-61
2022/11/25 09:40:55;;;;;;;4.10;0.73;;;;;;;;;;21007642;28;20110;-57
2022/11/25 09:50:58;;;;;;;5.07;0.82;;;;;;;;;;20990490;28;20084;-65
2022/11/25 10:01:04;;;;;;;4.40;1.00;;;;;;;;;;20988586;28;20143;-63
2022/11/25 10:11:20;;;;;;;3.60;0.63;;;;;;;;;;21004886;28;20109;-61
2022/11/25 10:21:23;;;;;;;4.57;2.35;;;;;;;;;;21004878;28;20057;-59
2022/11/25 10:31:34;;;;;;;4.38;1.05;;;;;;;;;;21003278;28;20052;-64
2022/11/25 10:41:45;;;;;;;5.57;0.77;;;;;;;;;;21003669;28;20471;-59
2022/11/25 10:51:47;;;;;;;4.07;0.50;;;;;;;;;;21002317;28;20101;-59
2022/11/25 11:01:54;;;;;;;4.07;0.40;;;;;;;;;;21002080;28;20052;-60
2022/11/25 11:11:57;;;;;;;3.22;0.60;;;;;;;;;;21000670;28;20044;-60
2022/11/25 11:22:14;;;;;;;7.50;1.38;;;;;;;;;;20999555;28;20052;-62
2022/11/25 11:32:23;;;;;;;3.97;1.35;;;;;;;;;;20998661;28;20127;-59
2022/11/25 11:42:25;;;;;;;3.72;0.98;;;;;;;;;;20997824;28;20082;-60
2022/11/25 11:52:45;;;;;;;4.75;0.90;;;;;;;;;;20997377;28;20048;-65
2022/11/25 12:02:47;;;;;;;1.67;0.90;;;;;;;;;;20997342;28;20075;-63
2022/11/25 12:13:12;;;;;;;5.72;0.77;;;;;;;;;;20996063;28;20048;-65
2022/11/25 12:23:19;;;;;;;1.75;0.50;;;;;;;;;;20658888;28;20250;-60
2022/11/25 12:33:25;;;;;;;2.35;0.60;;;;;;;;;;20657391;28;20103;-60
2022/11/25 12:43:28;;;;;;;3.10;0.73;;;;;;;;;;20658263;28;20454;-59
2022/11/25 12:53:30;;;;;;;2.38;0.80;;;;;;;;;;20729762;28;20049;-60
2022/11/25 13:03:32;;;;;;;6.88;0.88;;;;;;;;;;20995303;28;20472;-61
2022/11/25 13:13:34;;;;;;;3.55;0.93;;;;;;;;;;20994911;28;20056;-64
2022/11/25 13:23:43;;;;;;;4.20;0.70;;;;;;;;;;20994327;28;20056;-61
2022/11/25 13:33:45;;;;;;;4.90;0.93;;;;;;;;;;20993171;28;20049;-61
2022/11/25 13:43:59;;;;;;;4.20;0.50;;;;;;;;;;21002975;28;20044;-61
2022/11/25 13:54:03;;;;;;;3.22;0.80;;;;;;;;;;21006957;28;20211;-65
2022/11/25 14:04:10;;;;;;;1.10;0.50;;;;;;;;;;21006206;28;20140;-65
2022/11/25 14:14:26;;;;;;;4.18;0.57;;;;;;;;;;21005824;28;20555;-66
2022/11/25 14:24:30;;;;;;;5.28;0.80;;;;;;;;;;21004965;28;20056;-62
2022/11/25 14:34:37;;;;;;;3.13;0.68;;;;;;;;;;21005171;28;20127;-63
2022/11/25 14:44:59;;;;;;;3.47;0.60;;;;;;;;;;21002957;28;20088;-62
2022/11/25 14:55:05;;;;;;;2.45;0.60;;;;;;;;;;21002371;28;20048;-63
2022/11/25 15:05:10;;;;;;;4.72;0.68;;;;;;;;;;21001690;28;20056;-62
2022/11/25 15:15:14;;;;;;;4.50;0.63;;;;;;;;;;21000186;28;20053;-61
2022/11/25 15:25:18;;;;;;;3.25;0.73;;;;;;;;;;20982919;28;20500;-63
2022/11/25 15:35:21;;;;;;;4.15;0.82;;;;;;;;;;20999595;28;20040;-59
2022/11/25 15:45:23;;;;;;;4.00;0.70;;;;;;;;;;20998340;28;20177;-59
2022/11/25 15:55:31;;;;;;;2.30;0.90;;;;;;;;;;20998162;28;20047;-60
2022/11/25 16:05:37;;;;;;;3.53;0.60;;;;;;;;;;20979673;28;20088;-63
2022/11/25 16:15:46;;;;;;;2.28;0.50;;;;;;;;;;20997004;28;20113;-60
2022/11/25 16:25:48;;;;;;;;;;;;;;;;;;20995229;28;20530;-63
2022/11/25 16:35:51;;;;;;;1.67;0.57;;;;;;;;;;20994267;28;19921;-67
2022/11/25 16:45:53;;;;;;;1.75;0.40;;;;;;;;;;20993926;28;20096;-65
2022/11/25 16:55:56;;;;;;;2.65;0.90;;;;;;;;;;20994876;28;20147;-69
2022/11/25 17:05:58;;;;;;;8.85;5.10;;;;;;;;;;20993320;28;20057;-70
2022/11/25 17:16:00;;;;;;;1.25;0.50;;;;;;;;;;20999787;28;20040;-69
2022/11/25 17:26:03;;;;;;;1.42;0.70;;;;;;;;;;21007362;28;20117;-69
2022/11/25 17:36:05;;;;;;;2.22;0.50;;;;;;;;;;21006939;28;20051;-65
2022/11/25 17:46:11;;;;;;;2.83;0.70;;;;;;;;;;21006930;28;20445;-68
2022/11/25 17:56:17;;;;;;;3.47;1.10;;;;;;;;;;21006032;28;20048;-72
2022/11/25 18:06:20;;;;;;;3.13;1.00;;;;;;;;;;21005318;28;20155;-72
2022/11/25 18:16:22;;;;;;;4.43;1.33;;;;;;;;;;21020330;28;20048;-70
2022/11/25 18:26:25;;;;;;;7.00;1.85;;;;;;;;;;21007314;28;20106;-70
2022/11/25 18:36:27;;;;;;;2.33;1.20;;;;;;;;;;21005953;28;20441;-70
2022/11/25 18:46:33;;;;;;;2.70;1.75;;;;;;;;;;21004549;28;20055;-68
2022/11/25 18:56:35;;;;;;;4.75;2.20;;;;;;;;;;21002570;28;20048;-69
2022/11/25 19:06:40;;;;;;;6.25;2.75;;;;;;;;;;21001338;28;20087;-64
2022/11/25 19:16:43;;;;;;;6.80;2.00;;;;;;;;;;20999524;28;20075;-60
2022/11/25 19:26:50;;;;;;;4.65;1.67;;;;;;;;;;20981143;28;20055;-66
2022/11/25 19:36:52;;;;;;;8.85;2.63;;;;;;;;;;20999413;28;20048;-63
2022/11/25 19:46:55;;;;;;;4.07;2.22;;;;;;;;;;20998349;28;20048;-64
2022/11/25 19:56:56;;;;;;;6.95;2.40;;;;;;;;;;20998417;28;20087;-62
2022/11/25 20:06:58;;;;;;;6.57;1.90;;;;;;;;;;20996934;28;20137;-59
2022/11/25 20:17:01;;;;;;;6.50;2.13;;;;;;;;;;20995933;28;20057;-59
2022/11/25 20:27:03;;;;;;;6.65;2.97;;;;;;;;;;20995700;28;20153;-59
2022/11/25 20:37:05;;;;;;;5.25;2.17;;;;;;;;;;20995268;28;20079;-59
2022/11/25 20:47:15;;;;;;;6.05;2.70;;;;;;;;;;20996332;28;20561;-59
2022/11/25 20:57:17;;;;;;;4.38;2.10;;;;;;;;;;21012174;28;20075;-59
2022/11/25 21:07:20;;;;;;;12.38;3.78;;;;;;;;;;21011690;28;20381;-59
2022/11/25 21:17:24;;;;;;;9.52;3.97;;;;;;;;;;21009543;28;20132;-60
2022/11/25 21:27:27;;;;;;;6.97;3.45;;;;;;;;;;21008783;28;20142;-61
2022/11/25 21:37:31;;;;;;;4.07;2.22;;;;;;;;;;20990446;28;20044;-60
2022/11/25 21:47:33;;;;;;;6.20;2.72;;;;;;;;;;21009002;28;20052;-59
2022/11/25 21:57:35;;;;;;;12.80;5.00;;;;;;;;;;20988914;28;20052;-60
2022/11/25 22:07:37;;;;;;;7.72;3.78;;;;;;;;;;21005366;28;20507;-59
2022/11/25 22:17:39;;;;;;;6.07;2.95;;;;;;;;;;21004722;28;20059;-60
2022/11/25 22:27:42;;;;;;;6.05;3.30;;;;;;;;;;21003659;28;20385;-59
2022/11/25 22:37:45;;;;;;;4.38;2.60;;;;;;;;;;21004195;28;20071;-60
2022/11/25 22:47:47;;;;;;;12.65;4.03;;;;;;;;;;21003105;28;20492;-59
2022/11/25 22:57:50;;;;;;;11.95;4.95;;;;;;;;;;21001953;28;20045;-60
2022/11/25 23:07:52;;;;;;;7.25;2.80;;;;;;;;;;21001622;28;20554;-60
2022/11/25 23:17:59;;;;;;;6.95;2.78;;;;;;;;;;20999799;28;20126;-61
2022/11/25 23:28:02;;;;;;;5.97;2.67;;;;;;;;;;21000301;28;20071;-60
2022/11/25 23:38:11;;;;;;;7.60;2.97;;;;;;;;;;20998522;28;20041;-59
2022/11/25 23:48:13;;;;;;;6.03;2.40;;;;;;;;;;20998231;28;20064;-59
2022/11/25 23:58:17;;;;;;;6.03;1.85;;;;;;;;;;20998363;28;20041;-59
